sensor_id;sensor_type;location;lat;lon;timestamp;P1;durP1;ratioP1;P2;durP2;ratioP2
22449;SDS011;11392;57.390;-2.468;2023-04-27T00:01:39;5.28;;;3.40;;
22449;SDS011;11392;57.390;-2.468;2023-04-27T00:04:07;4.28;;;2.72;;
22449;SDS011;11392;57.390;-2.468;2023-04-27T00:06:35;6.60;;;3.60;;
22449;SDS011;11392;57.390;-2.468;2023-04-27T00:09:02;5.28;;;3.60;;
22449;SDS011;11392;57.390;-2.468;2023-04-27T00:11:29;5.45;;;3.38;;
22449;SDS011;11392;57.390;-2.468;2023-04-27T00:13:57;4.50;;;2.80;;
22449;SDS011;11392;57.390;-2.468;2023-04-27T00:16:24;4.53;;;2.35;;
22449;SDS011;11392;57.390;-2.468;2023-04-27T00:18:51;3.03;;;2.45;;
22449;SDS011;11392;57.390;-2.468;2023-04-27T00:21:18;3.65;;;2.67;;
22449;SDS011;11392;57.390;-2.468;2023-04-27T00:23:46;3.70;;;2.70;;
22449;SDS011;11392;57.390;-2.468;2023-04-27T00:26:13;4.13;;;2.80;;
22449;SDS011;11392;57.390;-2.468;2023-04-27T00:28:40;3.38;;;2.53;;
22449;SDS011;11392;57.390;-2.468;2023-04-27T00:31:07;3.20;;;2.28;;
22449;SDS011;11392;57.390;-2.468;2023-04-27T00:33:34;5.50;;;3.42;;
22449;SDS011;11392;57.390;-2.468;2023-04-27T00:36:01;3.33;;;2.17;;
22449;SDS011;11392;57.390;-2.468;2023-04-27T00:38:28;6.57;;;3.33;;
22449;SDS011;11392;57.390;-2.468;2023-04-27T00:40:59;5.78;;;3.38;;
22449;SDS011;11392;57.390;-2.468;2023-04-27T00:43:32;4.00;;;2.85;;
22449;SDS011;11392;57.390;-2.468;2023-04-27T00:46:06;5.00;;;3.22;;
22449;SDS011;11392;57.390;-2.468;2023-04-27T00:48:34;6.78;;;3.28;;
22449;SDS011;11392;57.390;-2.468;2023-04-27T00:51:02;5.63;;;3.50;;
22449;SDS011;11392;57.390;-2.468;2023-04-27T00:53:29;3.55;;;2.97;;
22449;SDS011;11392;57.390;-2.468;2023-04-27T00:55:57;6.97;;;3.10;;
22449;SDS011;11392;57.390;-2.468;2023-04-27T00:58:24;3.33;;;2.65;;
22449;SDS011;11392;57.390;-2.468;2023-04-27T01:00:51;7.00;;;3.10;;
22449;SDS011;11392;57.390;-2.468;2023-04-27T01:03:18;3.88;;;3.05;;
22449;SDS011;11392;57.390;-2.468;2023-04-27T01:05:46;3.88;;;3.08;;
22449;SDS011;11392;57.390;-2.468;2023-04-27T01:08:13;7.97;;;4.10;;
22449;SDS011;11392;57.390;-2.468;2023-04-27T01:10:41;5.93;;;3.50;;
22449;SDS011;11392;57.390;-2.468;2023-04-27T01:13:08;5.85;;;3.70;;
22449;SDS011;11392;57.390;-2.468;2023-04-27T01:15:36;3.47;;;2.60;;
22449;SDS011;11392;57.390;-2.468;2023-04-27T01:18:03;5.30;;;3.05;;
22449;SDS011;11392;57.390;-2.468;2023-04-27T01:20:30;7.38;;;3.88;;
22449;SDS011;11392;57.390;-2.468;2023-04-27T01:22:57;5.60;;;3.95;;
22449;SDS011;11392;57.390;-2.468;2023-04-27T01:25:25;3.75;;;2.70;;
22449;SDS011;11392;57.390;-2.468;2023-04-27T01:27:52;4.78;;;2.85;;
22449;SDS011;11392;57.390;-2.468;2023-04-27T01:30:19;3.75;;;2.75;;
22449;SDS011;11392;57.390;-2.468;2023-04-27T01:32:48;2.45;;;2.20;;
22449;SDS011;11392;57.390;-2.468;2023-04-27T01:35:15;4.85;;;3.35;;
22449;SDS011;11392;57.390;-2.468;2023-04-27T01:37:42;5.80;;;3.42;;
22449;SDS011;11392;57.390;-2.468;2023-04-27T01:40:10;5.18;;;3.03;;
22449;SDS011;11392;57.390;-2.468;2023-04-27T01:42:37;4.00;;;3.13;;
22449;SDS011;11392;57.390;-2.468;2023-04-27T01:45:04;7.50;;;3.85;;
22449;SDS011;11392;57.390;-2.468;2023-04-27T01:47:32;6.22;;;4.07;;
22449;SDS011;11392;57.390;-2.468;2023-04-27T01:49:59;4.28;;;3.30;;
22449;SDS011;11392;57.390;-2.468;2023-04-27T01:52:27;6.05;;;2.65;;
22449;SDS011;11392;57.390;-2.468;2023-04-27T01:54:54;4.65;;;3.25;;
22449;SDS011;11392;57.390;-2.468;2023-04-27T01:57:22;4.40;;;2.55;;
22449;SDS011;11392;57.390;-2.468;2023-04-27T01:59:49;3.90;;;3.20;;
22449;SDS011;11392;57.390;-2.468;2023-04-27T02:02:16;4.50;;;2.53;;
22449;SDS011;11392;57.390;-2.468;2023-04-27T02:04:43;3.42;;;2.53;;
22449;SDS011;11392;57.390;-2.468;2023-04-27T02:07:10;4.82;;;2.45;;
22449;SDS011;11392;57.390;-2.468;2023-04-27T02:09:37;4.13;;;2.90;;
22449;SDS011;11392;57.390;-2.468;2023-04-27T02:12:04;2.80;;;2.40;;
22449;SDS011;11392;57.390;-2.468;2023-04-27T02:14:32;3.28;;;2.53;;
22449;SDS011;11392;57.390;-2.468;2023-04-27T02:16:59;3.33;;;2.30;;
22449;SDS011;11392;57.390;-2.468;2023-04-27T02:19:26;3.70;;;2.75;;
22449;SDS011;11392;57.390;-2.468;2023-04-27T02:21:53;4.38;;;2.95;;
22449;SDS011;11392;57.390;-2.468;2023-04-27T02:24:20;5.10;;;2.70;;
22449;SDS011;11392;57.390;-2.468;2023-04-27T02:26:47;2.75;;;2.47;;
22449;SDS011;11392;57.390;-2.468;2023-04-27T02:29:14;2.47;;;2.28;;
22449;SDS011;11392;57.390;-2.468;2023-04-27T02:31:42;6.43;;;3.40;;
22449;SDS011;11392;57.390;-2.468;2023-04-27T02:34:10;4.95;;;3.58;;
22449;SDS011;11392;57.390;-2.468;2023-04-27T02:36:37;6.53;;;3.78;;
22449;SDS011;11392;57.390;-2.468;2023-04-27T02:39:04;8.85;;;4.07;;
22449;SDS011;11392;57.390;-2.468;2023-04-27T02:41:31;6.90;;;4.18;;
22449;SDS011;11392;57.390;-2.468;2023-04-27T02:43:58;5.43;;;3.13;;
22449;SDS011;11392;57.390;-2.468;2023-04-27T02:46:25;7.18;;;4.43;;
22449;SDS011;11392;57.390;-2.468;2023-04-27T02:48:52;6.60;;;3.20;;
22449;SDS011;11392;57.390;-2.468;2023-04-27T02:51:21;5.57;;;3.28;;
22449;SDS011;11392;57.390;-2.468;2023-04-27T02:53:48;4.20;;;3.25;;
22449;SDS011;11392;57.390;-2.468;2023-04-27T02:56:15;4.95;;;2.53;;
22449;SDS011;11392;57.390;-2.468;2023-04-27T02:58:42;3.85;;;2.97;;
22449;SDS011;11392;57.390;-2.468;2023-04-27T03:01:10;6.28;;;3.60;;
22449;SDS011;11392;57.390;-2.468;2023-04-27T03:03:38;4.82;;;2.90;;
22449;SDS011;11392;57.390;-2.468;2023-04-27T03:06:05;5.25;;;2.97;;
22449;SDS011;11392;57.390;-2.468;2023-04-27T03:08:32;7.10;;;3.58;;
22449;SDS011;11392;57.390;-2.468;2023-04-27T03:10:59;4.28;;;3.35;;
22449;SDS011;11392;57.390;-2.468;2023-04-27T03:13:26;4.75;;;2.53;;
22449;SDS011;11392;57.390;-2.468;2023-04-27T03:15:53;4.35;;;3.25;;
22449;SDS011;11392;57.390;-2.468;2023-04-27T03:18:21;4.00;;;1.80;;
22449;SDS011;11392;57.390;-2.468;2023-04-27T03:20:48;3.47;;;2.38;;
22449;SDS011;11392;57.390;-2.468;2023-04-27T03:23:15;2.53;;;2.33;;
22449;SDS011;11392;57.390;-2.468;2023-04-27T03:25:42;5.07;;;3.63;;
22449;SDS011;11392;57.390;-2.468;2023-04-27T03:28:09;5.30;;;3.33;;
22449;SDS011;11392;57.390;-2.468;2023-04-27T03:30:37;5.43;;;3.60;;
22449;SDS011;11392;57.390;-2.468;2023-04-27T03:33:06;4.07;;;2.40;;
22449;SDS011;11392;57.390;-2.468;2023-04-27T03:35:33;3.40;;;2.35;;
22449;SDS011;11392;57.390;-2.468;2023-04-27T03:38:00;3.33;;;2.45;;
22449;SDS011;11392;57.390;-2.468;2023-04-27T03:40:27;3.20;;;2.88;;
22449;SDS011;11392;57.390;-2.468;2023-04-27T03:42:54;4.85;;;2.25;;
22449;SDS011;11392;57.390;-2.468;2023-04-27T03:45:24;3.85;;;2.20;;
22449;SDS011;11392;57.390;-2.468;2023-04-27T03:47:51;4.28;;;3.30;;
22449;SDS011;11392;57.390;-2.468;2023-04-27T03:50:18;3.85;;;3.17;;
22449;SDS011;11392;57.390;-2.468;2023-04-27T03:52:45;7.75;;;3.75;;
22449;SDS011;11392;57.390;-2.468;2023-04-27T03:55:12;4.32;;;2.50;;
22449;SDS011;11392;57.390;-2.468;2023-04-27T03:57:39;6.05;;;3.55;;
22449;SDS011;11392;57.390;-2.468;2023-04-27T04:00:07;3.28;;;2.72;;
22449;SDS011;11392;57.390;-2.468;2023-04-27T04:02:37;4.95;;;3.53;;
22449;SDS011;11392;57.390;-2.468;2023-04-27T04:05:04;6.40;;;3.75;;
22449;SDS011;11392;57.390;-2.468;2023-04-27T04:07:32;3.30;;;2.30;;
22449;SDS011;11392;57.390;-2.468;2023-04-27T04:09:59;6.65;;;4.00;;
22449;SDS011;11392;57.390;-2.468;2023-04-27T04:12:26;6.88;;;3.47;;
22449;SDS011;11392;57.390;-2.468;2023-04-27T04:14:53;5.45;;;3.42;;
22449;SDS011;11392;57.390;-2.468;2023-04-27T04:17:20;5.35;;;3.33;;
22449;SDS011;11392;57.390;-2.468;2023-04-27T04:19:47;7.68;;;3.53;;
22449;SDS011;11392;57.390;-2.468;2023-04-27T04:22:14;4.25;;;3.03;;
22449;SDS011;11392;57.390;-2.468;2023-04-27T04:24:41;6.10;;;3.55;;
22449;SDS011;11392;57.390;-2.468;2023-04-27T04:27:09;6.78;;;3.97;;
22449;SDS011;11392;57.390;-2.468;2023-04-27T04:29:36;5.60;;;3.30;;
22449;SDS011;11392;57.390;-2.468;2023-04-27T04:32:04;5.03;;;3.33;;
22449;SDS011;11392;57.390;-2.468;2023-04-27T04:34:32;8.07;;;4.00;;
22449;SDS011;11392;57.390;-2.468;2023-04-27T04:37:00;6.90;;;3.50;;
22449;SDS011;11392;57.390;-2.468;2023-04-27T04:39:30;5.70;;;3.35;;
22449;SDS011;11392;57.390;-2.468;2023-04-27T04:41:58;5.72;;;3.08;;
22449;SDS011;11392;57.390;-2.468;2023-04-27T04:44:25;4.80;;;3.20;;
22449;SDS011;11392;57.390;-2.468;2023-04-27T04:46:52;4.40;;;2.92;;
22449;SDS011;11392;57.390;-2.468;2023-04-27T04:49:21;3.80;;;2.40;;
22449;SDS011;11392;57.390;-2.468;2023-04-27T04:51:48;3.20;;;2.38;;
22449;SDS011;11392;57.390;-2.468;2023-04-27T04:54:15;4.07;;;2.72;;
22449;SDS011;11392;57.390;-2.468;2023-04-27T04:56:42;4.00;;;2.60;;
22449;SDS011;11392;57.390;-2.468;2023-04-27T04:59:08;4.00;;;3.10;;
22449;SDS011;11392;57.390;-2.468;2023-04-27T05:01:35;4.60;;;3.50;;
22449;SDS011;11392;57.390;-2.468;2023-04-27T05:04:03;3.88;;;2.60;;
22449;SDS011;11392;57.390;-2.468;2023-04-27T05:06:30;3.35;;;2.42;;
22449;SDS011;11392;57.390;-2.468;2023-04-27T05:08:57;3.55;;;2.80;;
22449;SDS011;11392;57.390;-2.468;2023-04-27T05:11:24;3.90;;;2.47;;
22449;SDS011;11392;57.390;-2.468;2023-04-27T05:13:52;4.35;;;2.55;;
22449;SDS011;11392;57.390;-2.468;2023-04-27T05:16:19;3.40;;;2.72;;
22449;SDS011;11392;57.390;-2.468;2023-04-27T05:18:46;5.55;;;3.05;;
22449;SDS011;11392;57.390;-2.468;2023-04-27T05:21:14;4.05;;;2.80;;
22449;SDS011;11392;57.390;-2.468;2023-04-27T05:23:41;2.97;;;2.40;;
22449;SDS011;11392;57.390;-2.468;2023-04-27T05:26:15;4.20;;;2.63;;
22449;SDS011;11392;57.390;-2.468;2023-04-27T05:28:43;7.05;;;2.90;;
22449;SDS011;11392;57.390;-2.468;2023-04-27T05:31:12;5.63;;;3.97;;
22449;SDS011;11392;57.390;-2.468;2023-04-27T05:33:39;4.47;;;3.15;;
22449;SDS011;11392;57.390;-2.468;2023-04-27T05:36:06;3.88;;;3.38;;
22449;SDS011;11392;57.390;-2.468;2023-04-27T05:38:34;3.67;;;3.13;;
22449;SDS011;11392;57.390;-2.468;2023-04-27T05:41:05;6.68;;;3.35;;
22449;SDS011;11392;57.390;-2.468;2023-04-27T05:43:32;4.20;;;2.88;;
22449;SDS011;11392;57.390;-2.468;2023-04-27T05:46:00;5.60;;;3.83;;
22449;SDS011;11392;57.390;-2.468;2023-04-27T05:48:27;4.07;;;3.10;;
22449;SDS011;11392;57.390;-2.468;2023-04-27T05:51:01;4.15;;;3.22;;
22449;SDS011;11392;57.390;-2.468;2023-04-27T05:53:29;7.05;;;3.65;;
22449;SDS011;11392;57.390;-2.468;2023-04-27T05:55:56;5.97;;;4.00;;
22449;SDS011;11392;57.390;-2.468;2023-04-27T05:58:24;5.95;;;3.85;;
22449;SDS011;11392;57.390;-2.468;2023-04-27T06:00:52;6.97;;;3.88;;
22449;SDS011;11392;57.390;-2.468;2023-04-27T06:03:19;6.55;;;3.63;;
22449;SDS011;11392;57.390;-2.468;2023-04-27T06:05:52;6.63;;;2.90;;
22449;SDS011;11392;57.390;-2.468;2023-04-27T06:08:24;4.35;;;3.28;;
22449;SDS011;11392;57.390;-2.468;2023-04-27T06:10:52;4.00;;;3.05;;
22449;SDS011;11392;57.390;-2.468;2023-04-27T06:13:19;4.40;;;3.28;;
22449;SDS011;11392;57.390;-2.468;2023-04-27T06:15:47;3.70;;;3.00;;
22449;SDS011;11392;57.390;-2.468;2023-04-27T06:18:14;5.97;;;3.97;;
22449;SDS011;11392;57.390;-2.468;2023-04-27T06:20:41;6.72;;;3.90;;
22449;SDS011;11392;57.390;-2.468;2023-04-27T06:23:08;4.80;;;3.15;;
22449;SDS011;11392;57.390;-2.468;2023-04-27T06:25:35;6.65;;;3.65;;
22449;SDS011;11392;57.390;-2.468;2023-04-27T06:28:04;4.68;;;3.25;;
22449;SDS011;11392;57.390;-2.468;2023-04-27T06:30:31;5.25;;;3.28;;
22449;SDS011;11392;57.390;-2.468;2023-04-27T06:32:58;4.43;;;3.03;;
22449;SDS011;11392;57.390;-2.468;2023-04-27T06:35:25;5.72;;;4.30;;
22449;SDS011;11392;57.390;-2.468;2023-04-27T06:37:52;4.15;;;3.80;;
22449;SDS011;11392;57.390;-2.468;2023-04-27T06:40:24;6.45;;;4.00;;
22449;SDS011;11392;57.390;-2.468;2023-04-27T06:42:52;6.70;;;3.80;;
22449;SDS011;11392;57.390;-2.468;2023-04-27T06:45:19;4.00;;;3.60;;
22449;SDS011;11392;57.390;-2.468;2023-04-27T06:47:47;5.55;;;4.30;;
22449;SDS011;11392;57.390;-2.468;2023-04-27T06:50:14;6.45;;;3.75;;
22449;SDS011;11392;57.390;-2.468;2023-04-27T06:52:41;6.18;;;3.65;;
22449;SDS011;11392;57.390;-2.468;2023-04-27T06:55:09;6.60;;;4.35;;
22449;SDS011;11392;57.390;-2.468;2023-04-27T06:57:36;5.32;;;3.63;;
22449;SDS011;11392;57.390;-2.468;2023-04-27T07:00:03;5.75;;;3.60;;
22449;SDS011;11392;57.390;-2.468;2023-04-27T07:02:31;5.53;;;4.05;;
22449;SDS011;11392;57.390;-2.468;2023-04-27T07:04:58;7.88;;;3.80;;
22449;SDS011;11392;57.390;-2.468;2023-04-27T07:07:25;6.25;;;4.00;;
22449;SDS011;11392;57.390;-2.468;2023-04-27T07:09:52;7.82;;;3.60;;
22449;SDS011;11392;57.390;-2.468;2023-04-27T07:12:19;5.20;;;3.65;;
22449;SDS011;11392;57.390;-2.468;2023-04-27T07:14:46;6.22;;;3.72;;
22449;SDS011;11392;57.390;-2.468;2023-04-27T07:17:15;6.40;;;3.90;;
22449;SDS011;11392;57.390;-2.468;2023-04-27T07:19:43;6.60;;;4.03;;
22449;SDS011;11392;57.390;-2.468;2023-04-27T07:22:10;6.00;;;3.95;;
22449;SDS011;11392;57.390;-2.468;2023-04-27T07:24:37;7.00;;;4.25;;
22449;SDS011;11392;57.390;-2.468;2023-04-27T07:27:04;7.35;;;4.40;;
22449;SDS011;11392;57.390;-2.468;2023-04-27T07:29:31;6.25;;;3.63;;
22449;SDS011;11392;57.390;-2.468;2023-04-27T07:31:59;7.15;;;4.05;;
22449;SDS011;11392;57.390;-2.468;2023-04-27T07:34:26;4.95;;;3.70;;
22449;SDS011;11392;57.390;-2.468;2023-04-27T07:37:06;4.80;;;4.05;;
22449;SDS011;11392;57.390;-2.468;2023-04-27T07:39:34;6.80;;;4.40;;
22449;SDS011;11392;57.390;-2.468;2023-04-27T07:42:02;15.13;;;5.07;;
22449;SDS011;11392;57.390;-2.468;2023-04-27T07:44:29;10.00;;;4.40;;
22449;SDS011;11392;57.390;-2.468;2023-04-27T07:46:56;10.93;;;4.60;;
22449;SDS011;11392;57.390;-2.468;2023-04-27T07:49:23;5.40;;;4.03;;
22449;SDS011;11392;57.390;-2.468;2023-04-27T07:51:51;7.10;;;5.18;;
22449;SDS011;11392;57.390;-2.468;2023-04-27T07:54:18;5.15;;;3.97;;
22449;SDS011;11392;57.390;-2.468;2023-04-27T07:56:46;8.15;;;5.03;;
22449;SDS011;11392;57.390;-2.468;2023-04-27T07:59:12;8.20;;;4.57;;
22449;SDS011;11392;57.390;-2.468;2023-04-27T08:01:41;7.03;;;4.85;;
22449;SDS011;11392;57.390;-2.468;2023-04-27T08:04:08;9.35;;;5.20;;
22449;SDS011;11392;57.390;-2.468;2023-04-27T08:06:35;7.20;;;4.30;;
22449;SDS011;11392;57.390;-2.468;2023-04-27T08:09:03;7.95;;;5.13;;
22449;SDS011;11392;57.390;-2.468;2023-04-27T08:11:31;8.93;;;5.00;;
22449;SDS011;11392;57.390;-2.468;2023-04-27T08:13:57;8.75;;;5.50;;
22449;SDS011;11392;57.390;-2.468;2023-04-27T08:16:25;8.85;;;5.15;;
22449;SDS011;11392;57.390;-2.468;2023-04-27T08:18:52;11.45;;;5.72;;
22449;SDS011;11392;57.390;-2.468;2023-04-27T08:21:19;11.48;;;5.78;;
22449;SDS011;11392;57.390;-2.468;2023-04-27T08:23:46;10.18;;;5.93;;
22449;SDS011;11392;57.390;-2.468;2023-04-27T08:26:13;8.18;;;5.82;;
22449;SDS011;11392;57.390;-2.468;2023-04-27T08:28:41;10.70;;;6.20;;
22449;SDS011;11392;57.390;-2.468;2023-04-27T08:31:09;9.20;;;5.70;;
22449;SDS011;11392;57.390;-2.468;2023-04-27T08:33:36;11.88;;;6.18;;
22449;SDS011;11392;57.390;-2.468;2023-04-27T08:36:03;6.82;;;5.25;;
22449;SDS011;11392;57.390;-2.468;2023-04-27T08:38:31;11.60;;;6.07;;
22449;SDS011;11392;57.390;-2.468;2023-04-27T08:41:00;11.38;;;7.10;;
22449;SDS011;11392;57.390;-2.468;2023-04-27T08:43:45;8.25;;;5.72;;
22449;SDS011;11392;57.390;-2.468;2023-04-27T08:46:19;9.07;;;5.68;;
22449;SDS011;11392;57.390;-2.468;2023-04-27T08:48:50;8.70;;;6.18;;
22449;SDS011;11392;57.390;-2.468;2023-04-27T08:51:17;8.18;;;5.97;;
22449;SDS011;11392;57.390;-2.468;2023-04-27T08:53:47;10.57;;;6.60;;
22449;SDS011;11392;57.390;-2.468;2023-04-27T08:56:24;10.50;;;5.65;;
22449;SDS011;11392;57.390;-2.468;2023-04-27T08:58:53;9.07;;;5.95;;
22449;SDS011;11392;57.390;-2.468;2023-04-27T09:01:22;9.65;;;6.15;;
22449;SDS011;11392;57.390;-2.468;2023-04-27T09:03:58;8.30;;;5.90;;
22449;SDS011;11392;57.390;-2.468;2023-04-27T09:06:36;10.30;;;6.63;;
22449;SDS011;11392;57.390;-2.468;2023-04-27T09:09:03;12.82;;;7.28;;
22449;SDS011;11392;57.390;-2.468;2023-04-27T09:11:32;7.32;;;5.13;;
22449;SDS011;11392;57.390;-2.468;2023-04-27T09:14:17;10.27;;;6.60;;
22449;SDS011;11392;57.390;-2.468;2023-04-27T09:16:52;9.98;;;6.22;;
22449;SDS011;11392;57.390;-2.468;2023-04-27T09:19:28;8.73;;;5.65;;
22449;SDS011;11392;57.390;-2.468;2023-04-27T09:22:05;10.48;;;5.70;;
22449;SDS011;11392;57.390;-2.468;2023-04-27T09:24:34;9.30;;;5.50;;
22449;SDS011;11392;57.390;-2.468;2023-04-27T09:27:02;9.27;;;5.63;;
22449;SDS011;11392;57.390;-2.468;2023-04-27T09:29:31;9.60;;;6.30;;
22449;SDS011;11392;57.390;-2.468;2023-04-27T09:32:16;9.15;;;5.57;;
22449;SDS011;11392;57.390;-2.468;2023-04-27T09:34:44;7.43;;;5.07;;
22449;SDS011;11392;57.390;-2.468;2023-04-27T09:37:11;8.40;;;5.28;;
22449;SDS011;11392;57.390;-2.468;2023-04-27T09:39:40;8.07;;;5.32;;
22449;SDS011;11392;57.390;-2.468;2023-04-27T09:42:08;12.93;;;5.57;;
22449;SDS011;11392;57.390;-2.468;2023-04-27T09:44:37;8.63;;;5.18;;
22449;SDS011;11392;57.390;-2.468;2023-04-27T09:47:05;9.68;;;5.55;;
22449;SDS011;11392;57.390;-2.468;2023-04-27T09:49:33;8.85;;;5.82;;
22449;SDS011;11392;57.390;-2.468;2023-04-27T09:52:01;9.20;;;5.63;;
22449;SDS011;11392;57.390;-2.468;2023-04-27T09:54:30;10.48;;;5.57;;
22449;SDS011;11392;57.390;-2.468;2023-04-27T09:57:04;6.38;;;4.70;;
22449;SDS011;11392;57.390;-2.468;2023-04-27T10:02:48;9.50;;;5.63;;
22449;SDS011;11392;57.390;-2.468;2023-04-27T10:05:36;11.55;;;5.75;;
22449;SDS011;11392;57.390;-2.468;2023-04-27T10:08:17;7.78;;;5.35;;
22449;SDS011;11392;57.390;-2.468;2023-04-27T10:10:49;10.30;;;5.28;;
22449;SDS011;11392;57.390;-2.468;2023-04-27T10:13:23;12.00;;;6.38;;
22449;SDS011;11392;57.390;-2.468;2023-04-27T10:15:52;6.43;;;5.25;;
22449;SDS011;11392;57.390;-2.468;2023-04-27T10:18:28;12.73;;;6.82;;
22449;SDS011;11392;57.390;-2.468;2023-04-27T10:21:07;8.48;;;5.78;;
22449;SDS011;11392;57.390;-2.468;2023-04-27T10:23:44;11.73;;;6.05;;
22449;SDS011;11392;57.390;-2.468;2023-04-27T10:26:23;13.80;;;6.75;;
22449;SDS011;11392;57.390;-2.468;2023-04-27T10:29:10;9.23;;;5.53;;
22449;SDS011;11392;57.390;-2.468;2023-04-27T10:31:46;6.10;;;5.50;;
22449;SDS011;11392;57.390;-2.468;2023-04-27T10:34:17;11.10;;;7.05;;
22449;SDS011;11392;57.390;-2.468;2023-04-27T10:36:46;9.35;;;5.97;;
22449;SDS011;11392;57.390;-2.468;2023-04-27T10:39:18;11.20;;;6.40;;
22449;SDS011;11392;57.390;-2.468;2023-04-27T10:42:01;7.97;;;5.85;;
22449;SDS011;11392;57.390;-2.468;2023-04-27T10:44:29;8.80;;;6.53;;
22449;SDS011;11392;57.390;-2.468;2023-04-27T10:47:01;12.50;;;6.63;;
22449;SDS011;11392;57.390;-2.468;2023-04-27T10:49:42;8.73;;;6.25;;
22449;SDS011;11392;57.390;-2.468;2023-04-27T10:52:09;9.65;;;6.78;;
22449;SDS011;11392;57.390;-2.468;2023-04-27T10:54:36;11.00;;;6.38;;
22449;SDS011;11392;57.390;-2.468;2023-04-27T10:57:08;15.35;;;6.78;;
22449;SDS011;11392;57.390;-2.468;2023-04-27T10:59:49;10.68;;;8.38;;
22449;SDS011;11392;57.390;-2.468;2023-04-27T11:02:24;9.13;;;7.13;;
22449;SDS011;11392;57.390;-2.468;2023-04-27T11:04:53;10.98;;;7.28;;
22449;SDS011;11392;57.390;-2.468;2023-04-27T11:07:25;10.65;;;5.90;;
22449;SDS011;11392;57.390;-2.468;2023-04-27T11:09:53;9.73;;;7.07;;
22449;SDS011;11392;57.390;-2.468;2023-04-27T11:12:21;9.15;;;6.25;;
22449;SDS011;11392;57.390;-2.468;2023-04-27T11:14:48;12.23;;;7.63;;
22449;SDS011;11392;57.390;-2.468;2023-04-27T11:17:15;9.93;;;6.45;;
22449;SDS011;11392;57.390;-2.468;2023-04-27T11:19:52;10.63;;;7.18;;
22449;SDS011;11392;57.390;-2.468;2023-04-27T11:22:19;8.27;;;6.28;;
22449;SDS011;11392;57.390;-2.468;2023-04-27T11:24:47;10.65;;;6.35;;
22449;SDS011;11392;57.390;-2.468;2023-04-27T11:27:15;12.93;;;8.52;;
22449;SDS011;11392;57.390;-2.468;2023-04-27T11:29:43;12.15;;;7.13;;
22449;SDS011;11392;57.390;-2.468;2023-04-27T11:32:20;11.05;;;6.82;;
22449;SDS011;11392;57.390;-2.468;2023-04-27T11:34:49;12.05;;;7.70;;
22449;SDS011;11392;57.390;-2.468;2023-04-27T11:37:20;9.65;;;7.32;;
22449;SDS011;11392;57.390;-2.468;2023-04-27T11:39:49;12.07;;;7.78;;
22449;SDS011;11392;57.390;-2.468;2023-04-27T11:42:24;10.95;;;7.68;;
22449;SDS011;11392;57.390;-2.468;2023-04-27T11:44:57;11.95;;;6.70;;
22449;SDS011;11392;57.390;-2.468;2023-04-27T11:47:29;12.10;;;7.45;;
22449;SDS011;11392;57.390;-2.468;2023-04-27T11:49:58;11.00;;;7.40;;
22449;SDS011;11392;57.390;-2.468;2023-04-27T11:52:28;10.95;;;7.05;;
22449;SDS011;11392;57.390;-2.468;2023-04-27T11:54:57;10.32;;;7.18;;
22449;SDS011;11392;57.390;-2.468;2023-04-27T11:57:26;18.45;;;8.25;;
22449;SDS011;11392;57.390;-2.468;2023-04-27T11:59:55;11.32;;;7.30;;
22449;SDS011;11392;57.390;-2.468;2023-04-27T12:02:26;9.55;;;6.90;;
22449;SDS011;11392;57.390;-2.468;2023-04-27T12:04:54;12.23;;;7.65;;
22449;SDS011;11392;57.390;-2.468;2023-04-27T12:07:21;10.25;;;6.47;;
22449;SDS011;11392;57.390;-2.468;2023-04-27T12:09:48;12.23;;;7.18;;
22449;SDS011;11392;57.390;-2.468;2023-04-27T12:12:15;11.32;;;7.18;;
22449;SDS011;11392;57.390;-2.468;2023-04-27T12:14:48;11.60;;;6.93;;
22449;SDS011;11392;57.390;-2.468;2023-04-27T12:17:16;7.43;;;5.85;;
22449;SDS011;11392;57.390;-2.468;2023-04-27T12:19:43;11.57;;;7.05;;
22449;SDS011;11392;57.390;-2.468;2023-04-27T12:22:10;10.52;;;7.65;;
22449;SDS011;11392;57.390;-2.468;2023-04-27T12:24:37;10.10;;;7.32;;
22449;SDS011;11392;57.390;-2.468;2023-04-27T12:27:04;12.38;;;7.22;;
22449;SDS011;11392;57.390;-2.468;2023-04-27T12:29:33;13.15;;;7.50;;
22449;SDS011;11392;57.390;-2.468;2023-04-27T12:32:00;10.35;;;6.70;;
22449;SDS011;11392;57.390;-2.468;2023-04-27T12:34:27;12.93;;;7.68;;
22449;SDS011;11392;57.390;-2.468;2023-04-27T12:36:54;15.90;;;8.35;;
22449;SDS011;11392;57.390;-2.468;2023-04-27T12:39:21;15.00;;;8.55;;
22449;SDS011;11392;57.390;-2.468;2023-04-27T12:41:51;15.95;;;8.73;;
22449;SDS011;11392;57.390;-2.468;2023-04-27T12:44:19;14.85;;;9.02;;
22449;SDS011;11392;57.390;-2.468;2023-04-27T12:46:46;14.77;;;7.82;;
22449;SDS011;11392;57.390;-2.468;2023-04-27T12:49:14;14.52;;;9.35;;
22449;SDS011;11392;57.390;-2.468;2023-04-27T12:51:41;13.18;;;8.23;;
22449;SDS011;11392;57.390;-2.468;2023-04-27T12:54:09;13.70;;;9.02;;
22449;SDS011;11392;57.390;-2.468;2023-04-27T12:56:38;14.75;;;9.02;;
22449;SDS011;11392;57.390;-2.468;2023-04-27T12:59:05;13.07;;;8.40;;
22449;SDS011;11392;57.390;-2.468;2023-04-27T13:01:32;14.32;;;8.40;;
22449;SDS011;11392;57.390;-2.468;2023-04-27T13:04:00;14.10;;;8.90;;
22449;SDS011;11392;57.390;-2.468;2023-04-27T13:06:29;14.73;;;9.02;;
22449;SDS011;11392;57.390;-2.468;2023-04-27T13:08:57;13.57;;;8.15;;
22449;SDS011;11392;57.390;-2.468;2023-04-27T13:11:25;18.17;;;8.48;;
22449;SDS011;11392;57.390;-2.468;2023-04-27T13:13:52;15.88;;;8.73;;
22449;SDS011;11392;57.390;-2.468;2023-04-27T13:16:20;15.55;;;8.60;;
22449;SDS011;11392;57.390;-2.468;2023-04-27T13:18:51;15.20;;;9.57;;
22449;SDS011;11392;57.390;-2.468;2023-04-27T13:21:19;12.40;;;8.23;;
22449;SDS011;11392;57.390;-2.468;2023-04-27T13:23:46;12.95;;;8.48;;
22449;SDS011;11392;57.390;-2.468;2023-04-27T13:26:14;15.57;;;8.25;;
22449;SDS011;11392;57.390;-2.468;2023-04-27T13:28:42;17.23;;;8.95;;
22449;SDS011;11392;57.390;-2.468;2023-04-27T13:31:09;17.05;;;8.57;;
22449;SDS011;11392;57.390;-2.468;2023-04-27T13:33:40;13.00;;;8.13;;
22449;SDS011;11392;57.390;-2.468;2023-04-27T13:36:09;15.73;;;8.73;;
22449;SDS011;11392;57.390;-2.468;2023-04-27T13:38:36;16.27;;;8.40;;
22449;SDS011;11392;57.390;-2.468;2023-04-27T13:41:03;13.05;;;8.30;;
22449;SDS011;11392;57.390;-2.468;2023-04-27T13:43:31;14.48;;;9.07;;
22449;SDS011;11392;57.390;-2.468;2023-04-27T13:45:59;14.48;;;8.63;;
22449;SDS011;11392;57.390;-2.468;2023-04-27T13:48:27;16.75;;;8.85;;
22449;SDS011;11392;57.390;-2.468;2023-04-27T13:50:54;15.52;;;9.40;;
22449;SDS011;11392;57.390;-2.468;2023-04-27T13:53:22;16.92;;;9.65;;
22449;SDS011;11392;57.390;-2.468;2023-04-27T13:55:54;15.93;;;8.88;;
22449;SDS011;11392;57.390;-2.468;2023-04-27T13:58:23;17.15;;;8.82;;
22449;SDS011;11392;57.390;-2.468;2023-04-27T14:00:51;18.00;;;8.40;;
22449;SDS011;11392;57.390;-2.468;2023-04-27T14:03:19;15.38;;;8.80;;
22449;SDS011;11392;57.390;-2.468;2023-04-27T14:05:47;21.55;;;9.80;;
22449;SDS011;11392;57.390;-2.468;2023-04-27T14:08:16;17.00;;;9.75;;
22449;SDS011;11392;57.390;-2.468;2023-04-27T14:10:44;18.67;;;9.88;;
22449;SDS011;11392;57.390;-2.468;2023-04-27T14:13:11;19.15;;;8.98;;
22449;SDS011;11392;57.390;-2.468;2023-04-27T14:15:39;16.33;;;8.90;;
22449;SDS011;11392;57.390;-2.468;2023-04-27T14:18:07;12.13;;;9.57;;
22449;SDS011;11392;57.390;-2.468;2023-04-27T14:20:35;17.83;;;9.38;;
22449;SDS011;11392;57.390;-2.468;2023-04-27T14:23:03;17.63;;;10.10;;
22449;SDS011;11392;57.390;-2.468;2023-04-27T14:25:31;16.27;;;9.38;;
22449;SDS011;11392;57.390;-2.468;2023-04-27T14:28:00;19.60;;;9.93;;
22449;SDS011;11392;57.390;-2.468;2023-04-27T14:30:32;16.35;;;10.43;;
22449;SDS011;11392;57.390;-2.468;2023-04-27T14:33:01;15.02;;;9.18;;
22449;SDS011;11392;57.390;-2.468;2023-04-27T14:35:32;17.15;;;10.13;;
22449;SDS011;11392;57.390;-2.468;2023-04-27T14:37:59;17.95;;;10.45;;
22449;SDS011;11392;57.390;-2.468;2023-04-27T14:40:30;18.50;;;10.38;;
22449;SDS011;11392;57.390;-2.468;2023-04-27T14:42:57;18.15;;;9.30;;